sensor_id;sensor_type;location;lat;lon;timestamp;temperature;humidity
2056;DHT22;1033;52.560;13.374;2022-12-10T00:01:16;-1.60;99.90
2056;DHT22;1033;52.560;13.374;2022-12-10T00:03:56;-1.60;99.90
2056;DHT22;1033;52.560;13.374;2022-12-10T00:06:45;-1.60;99.90
2056;DHT22;1033;52.560;13.374;2022-12-10T00:09:26;-1.60;99.90
2056;DHT22;1033;52.560;13.374;2022-12-10T00:12:05;-1.60;99.90
2056;DHT22;1033;52.560;13.374;2022-12-10T00:14:39;-1.60;99.90
2056;DHT22;1033;52.560;13.374;2022-12-10T00:17:10;-1.70;99.90
2056;DHT22;1033;52.560;13.374;2022-12-10T00:19:43;-1.70;99.90
2056;DHT22;1033;52.560;13.374;2022-12-10T00:22:30;-1.60;99.90
2056;DHT22;1033;52.560;13.374;2022-12-10T00:25:08;-1.60;99.90
2056;DHT22;1033;52.560;13.374;2022-12-10T00:27:43;-1.60;99.90
2056;DHT22;1033;52.560;13.374;2022-12-10T00:30:15;-1.70;99.90
2056;DHT22;1033;52.560;13.374;2022-12-10T00:32:47;-1.60;99.90
2056;DHT22;1033;52.560;13.374;2022-12-10T00:35:20;-1.60;99.90
2056;DHT22;1033;52.560;13.374;2022-12-10T00:37:53;-1.60;99.90
2056;DHT22;1033;52.560;13.374;2022-12-10T00:40:55;-1.60;99.90
2056;DHT22;1033;52.560;13.374;2022-12-10T00:43:33;-1.60;99.90
2056;DHT22;1033;52.560;13.374;2022-12-10T00:46:05;-1.60;99.90
2056;DHT22;1033;52.560;13.374;2022-12-10T00:48:48;-1.60;99.90
2056;DHT22;1033;52.560;13.374;2022-12-10T00:51:42;-1.60;99.90
2056;DHT22;1033;52.560;13.374;2022-12-10T00:54:15;-1.60;99.90
2056;DHT22;1033;52.560;13.374;2022-12-10T00:57:00;-1.60;99.90
2056;DHT22;1033;52.560;13.374;2022-12-10T00:59:41;-1.60;99.90
2056;DHT22;1033;52.560;13.374;2022-12-10T01:02:24;-1.60;99.90
2056;DHT22;1033;52.560;13.374;2022-12-10T01:05:01;-1.70;99.90
2056;DHT22;1033;52.560;13.374;2022-12-10T01:07:34;-1.70;99.90
2056;DHT22;1033;52.560;13.374;2022-12-10T01:10:07;-1.70;99.90
2056;DHT22;1033;52.560;13.374;2022-12-10T01:12:46;-1.60;99.90
2056;DHT22;1033;52.560;13.374;2022-12-10T01:15:19;-1.70;99.90
2056;DHT22;1033;52.560;13.374;2022-12-10T01:17:53;-1.60;99.90
2056;DHT22;1033;52.560;13.374;2022-12-10T01:20:41;-1.60;99.90
2056;DHT22;1033;52.560;13.374;2022-12-10T01:23:22;-1.60;99.90
2056;DHT22;1033;52.560;13.374;2022-12-10T01:26:01;-1.70;99.90
2056;DHT22;1033;52.560;13.374;2022-12-10T01:28:39;-1.60;99.90
2056;DHT22;1033;52.560;13.374;2022-12-10T01:31:19;-1.60;99.90
2056;DHT22;1033;52.560;13.374;2022-12-10T01:34:09;-1.70;99.90
2056;DHT22;1033;52.560;13.374;2022-12-10T01:36:45;-1.80;99.90
2056;DHT22;1033;52.560;13.374;2022-12-10T01:39:33;-1.80;99.90
2056;DHT22;1033;52.560;13.374;2022-12-10T01:42:16;-1.80;99.90
2056;DHT22;1033;52.560;13.374;2022-12-10T01:45:10;-1.90;99.90
2056;DHT22;1033;52.560;13.374;2022-12-10T01:47:51;-1.90;99.90
2056;DHT22;1033;52.560;13.374;2022-12-10T01:50:30;-2.00;99.90
2056;DHT22;1033;52.560;13.374;2022-12-10T01:53:06;-2.00;99.90
2056;DHT22;1033;52.560;13.374;2022-12-10T01:55:48;-2.00;99.90
2056;DHT22;1033;52.560;13.374;2022-12-10T01:58:26;-2.00;99.90
2056;DHT22;1033;52.560;13.374;2022-12-10T02:01:05;-2.10;99.90
2056;DHT22;1033;52.560;13.374;2022-12-10T02:03:58;-2.10;99.90
2056;DHT22;1033;52.560;13.374;2022-12-10T02:06:53;-2.10;99.90
2056;DHT22;1033;52.560;13.374;2022-12-10T02:09:34;-2.10;99.90
2056;DHT22;1033;52.560;13.374;2022-12-10T02:12:17;-2.20;99.90
2056;DHT22;1033;52.560;13.374;2022-12-10T02:15:12;-2.20;99.90
2056;DHT22;1033;52.560;13.374;2022-12-10T02:18:06;-2.30;99.90
2056;DHT22;1033;52.560;13.374;2022-12-10T02:20:47;-2.30;99.90
2056;DHT22;1033;52.560;13.374;2022-12-10T02:23:26;-2.30;99.90
2056;DHT22;1033;52.560;13.374;2022-12-10T02:26:11;-2.30;99.90
2056;DHT22;1033;52.560;13.374;2022-12-10T02:32:18;-2.30;99.90
2056;DHT22;1033;52.560;13.374;2022-12-10T02:35:05;-2.30;99.90
2056;DHT22;1033;52.560;13.374;2022-12-10T02:37:53;-2.20;99.90
2056;DHT22;1033;52.560;13.374;2022-12-10T02:40:32;-2.30;99.90
2056;DHT22;1033;52.560;13.374;2022-12-10T02:43:18;-2.30;99.90
2056;DHT22;1033;52.560;13.374;2022-12-10T02:46:01;-2.20;99.90
2056;DHT22;1033;52.560;13.374;2022-12-10T02:48:48;-2.30;99.90
2056;DHT22;1033;52.560;13.374;2022-12-10T02:51:25;-2.30;99.90
2056;DHT22;1033;52.560;13.374;2022-12-10T02:54:39;-2.00;99.90
2056;DHT22;1033;52.560;13.374;2022-12-10T02:57:35;-1.90;99.90
2056;DHT22;1033;52.560;13.374;2022-12-10T03:00:17;-2.10;99.90
2056;DHT22;1033;52.560;13.374;2022-12-10T03:03:32;-2.10;99.90
2056;DHT22;1033;52.560;13.374;2022-12-10T03:06:20;-2.20;99.90
2056;DHT22;1033;52.560;13.374;2022-12-10T03:09:02;-2.20;99.90
2056;DHT22;1033;52.560;13.374;2022-12-10T03:11:47;-2.20;99.90
2056;DHT22;1033;52.560;13.374;2022-12-10T03:14:37;-2.10;99.90
2056;DHT22;1033;52.560;13.374;2022-12-10T03:17:22;-2.10;99.90
2056;DHT22;1033;52.560;13.374;2022-12-10T03:20:27;-2.10;99.90
2056;DHT22;1033;52.560;13.374;2022-12-10T03:22:59;-2.10;99.90
2056;DHT22;1033;52.560;13.374;2022-12-10T03:25:30;-2.00;99.90
2056;DHT22;1033;52.560;13.374;2022-12-10T03:28:01;-2.00;99.90
2056;DHT22;1033;52.560;13.374;2022-12-10T03:30:32;-2.10;99.90
2056;DHT22;1033;52.560;13.374;2022-12-10T03:33:04;-2.20;99.90
2056;DHT22;1033;52.560;13.374;2022-12-10T03:35:35;-2.10;99.90
2056;DHT22;1033;52.560;13.374;2022-12-10T03:38:06;-2.10;99.90
2056;DHT22;1033;52.560;13.374;2022-12-10T03:40:35;-2.10;99.90
2056;DHT22;1033;52.560;13.374;2022-12-10T03:43:04;-2.10;99.90
2056;DHT22;1033;52.560;13.374;2022-12-10T03:45:33;-2.10;99.90
2056;DHT22;1033;52.560;13.374;2022-12-10T03:48:02;-2.00;99.90
2056;DHT22;1033;52.560;13.374;2022-12-10T03:50:32;-1.90;99.90
2056;DHT22;1033;52.560;13.374;2022-12-10T03:53:02;-1.90;99.90
2056;DHT22;1033;52.560;13.374;2022-12-10T03:55:32;-1.90;99.90
2056;DHT22;1033;52.560;13.374;2022-12-10T03:58:01;-1.90;99.90
2056;DHT22;1033;52.560;13.374;2022-12-10T04:00:30;-1.70;99.90
2056;DHT22;1033;52.560;13.374;2022-12-10T04:02:59;-1.70;99.90
2056;DHT22;1033;52.560;13.374;2022-12-10T04:05:28;-1.70;99.90
2056;DHT22;1033;52.560;13.374;2022-12-10T04:07:57;-1.70;99.90
2056;DHT22;1033;52.560;13.374;2022-12-10T04:10:28;-1.70;99.90
2056;DHT22;1033;52.560;13.374;2022-12-10T04:12:58;-1.70;99.90
2056;DHT22;1033;52.560;13.374;2022-12-10T04:15:44;-1.50;99.90
2056;DHT22;1033;52.560;13.374;2022-12-10T04:18:30;-1.40;99.90
2056;DHT22;1033;52.560;13.374;2022-12-10T04:20:59;-1.40;99.90
2056;DHT22;1033;52.560;13.374;2022-12-10T04:23:45;-1.50;99.90
2056;DHT22;1033;52.560;13.374;2022-12-10T04:26:33;-1.40;99.90
2056;DHT22;1033;52.560;13.374;2022-12-10T04:29:21;-1.40;99.90
2056;DHT22;1033;52.560;13.374;2022-12-10T04:31:52;-1.50;99.90
2056;DHT22;1033;52.560;13.374;2022-12-10T04:34:22;-1.50;99.90
2056;DHT22;1033;52.560;13.374;2022-12-10T04:36:52;-1.30;99.90
2056;DHT22;1033;52.560;13.374;2022-12-10T04:39:21;-1.30;99.90
2056;DHT22;1033;52.560;13.374;2022-12-10T04:41:52;-1.30;99.90
2056;DHT22;1033;52.560;13.374;2022-12-10T04:44:21;-1.30;99.90
2056;DHT22;1033;52.560;13.374;2022-12-10T04:46:50;-1.40;99.90
2056;DHT22;1033;52.560;13.374;2022-12-10T04:49:19;-1.30;99.90
2056;DHT22;1033;52.560;13.374;2022-12-10T04:51:48;-1.40;99.90
2056;DHT22;1033;52.560;13.374;2022-12-10T04:54:18;-1.30;99.90
2056;DHT22;1033;52.560;13.374;2022-12-10T04:56:47;-1.20;99.90
2056;DHT22;1033;52.560;13.374;2022-12-10T04:59:18;-1.20;99.90
2056;DHT22;1033;52.560;13.374;2022-12-10T05:01:47;-1.20;99.90
2056;DHT22;1033;52.560;13.374;2022-12-10T05:04:17;-1.20;99.90
2056;DHT22;1033;52.560;13.374;2022-12-10T05:06:48;-1.10;99.90
2056;DHT22;1033;52.560;13.374;2022-12-10T05:09:18;-1.10;99.90
2056;DHT22;1033;52.560;13.374;2022-12-10T05:11:47;-1.10;99.90
2056;DHT22;1033;52.560;13.374;2022-12-10T05:14:18;-1.10;99.90
2056;DHT22;1033;52.560;13.374;2022-12-10T05:16:49;-1.00;99.90
2056;DHT22;1033;52.560;13.374;2022-12-10T05:19:19;-1.00;99.90
2056;DHT22;1033;52.560;13.374;2022-12-10T05:21:49;-0.90;99.90
2056;DHT22;1033;52.560;13.374;2022-12-10T05:24:36;-1.00;99.90
2056;DHT22;1033;52.560;13.374;2022-12-10T05:27:05;-1.10;99.90
2056;DHT22;1033;52.560;13.374;2022-12-10T05:29:35;-1.00;99.90
2056;DHT22;1033;52.560;13.374;2022-12-10T05:32:05;-1.00;99.90
2056;DHT22;1033;52.560;13.374;2022-12-10T05:34:34;-1.10;99.90
2056;DHT22;1033;52.560;13.374;2022-12-10T05:37:03;-1.10;99.90
2056;DHT22;1033;52.560;13.374;2022-12-10T05:39:32;-1.10;99.90
2056;DHT22;1033;52.560;13.374;2022-12-10T05:42:01;-1.10;99.90
2056;DHT22;1033;52.560;13.374;2022-12-10T05:44:30;-1.10;99.90
2056;DHT22;1033;52.560;13.374;2022-12-10T05:47:00;-1.10;99.90
2056;DHT22;1033;52.560;13.374;2022-12-10T05:49:29;-1.10;97.20
2056;DHT22;1033;52.560;13.374;2022-12-10T05:51:58;-1.10;77.30
2056;DHT22;1033;52.560;13.374;2022-12-10T05:54:27;-1.10;81.80
2056;DHT22;1033;52.560;13.374;2022-12-10T05:56:56;-1.20;74.00
2056;DHT22;1033;52.560;13.374;2022-12-10T05:59:26;-1.20;99.90
2056;DHT22;1033;52.560;13.374;2022-12-10T06:01:55;-1.10;54.50
2056;DHT22;1033;52.560;13.374;2022-12-10T06:04:25;-1.20;56.30
2056;DHT22;1033;52.560;13.374;2022-12-10T06:06:54;-1.10;81.70
2056;DHT22;1033;52.560;13.374;2022-12-10T06:09:23;-1.00;35.60
2056;DHT22;1033;52.560;13.374;2022-12-10T06:11:52;-1.10;29.70
2056;DHT22;1033;52.560;13.374;2022-12-10T06:14:21;-1.10;38.90
2056;DHT22;1033;52.560;13.374;2022-12-10T06:16:50;-1.00;75.60
2056;DHT22;1033;52.560;13.374;2022-12-10T06:19:19;-1.10;46.70
2056;DHT22;1033;52.560;13.374;2022-12-10T06:21:50;-1.00;34.80
2056;DHT22;1033;52.560;13.374;2022-12-10T06:24:19;-1.00;12.70
2056;DHT22;1033;52.560;13.374;2022-12-10T06:26:48;-1.10;1.80
2056;DHT22;1033;52.560;13.374;2022-12-10T06:29:22;-1.10;5.90
2056;DHT22;1033;52.560;13.374;2022-12-10T06:31:51;-1.20;16.00
2056;DHT22;1033;52.560;13.374;2022-12-10T06:34:22;-1.20;44.30
2056;DHT22;1033;52.560;13.374;2022-12-10T06:36:52;-1.20;45.80
2056;DHT22;1033;52.560;13.374;2022-12-10T06:39:21;-1.20;45.60
2056;DHT22;1033;52.560;13.374;2022-12-10T06:41:50;-1.30;41.40
2056;DHT22;1033;52.560;13.374;2022-12-10T06:44:25;-1.30;52.50
2056;DHT22;1033;52.560;13.374;2022-12-10T06:46:54;-1.20;62.70
2056;DHT22;1033;52.560;13.374;2022-12-10T06:49:23;-1.20;57.70
2056;DHT22;1033;52.560;13.374;2022-12-10T06:51:53;-1.20;42.80
2056;DHT22;1033;52.560;13.374;2022-12-10T06:54:22;-1.20;37.10
2056;DHT22;1033;52.560;13.374;2022-12-10T06:56:52;-1.20;33.40
2056;DHT22;1033;52.560;13.374;2022-12-10T06:59:20;-1.20;25.10
2056;DHT22;1033;52.560;13.374;2022-12-10T07:01:49;-1.20;21.60
2056;DHT22;1033;52.560;13.374;2022-12-10T07:04:45;-1.30;25.10
2056;DHT22;1033;52.560;13.374;2022-12-10T07:07:16;-1.30;25.50
2056;DHT22;1033;52.560;13.374;2022-12-10T07:09:44;-1.30;26.40
2056;DHT22;1033;52.560;13.374;2022-12-10T07:12:14;-1.40;41.20
2056;DHT22;1033;52.560;13.374;2022-12-10T07:14:43;-1.30;52.80
2056;DHT22;1033;52.560;13.374;2022-12-10T07:17:12;-1.30;40.40
2056;DHT22;1033;52.560;13.374;2022-12-10T07:19:41;-1.30;20.40
2056;DHT22;1033;52.560;13.374;2022-12-10T07:22:11;-1.30;35.30
2056;DHT22;1033;52.560;13.374;2022-12-10T07:24:42;-1.30;10.00
2056;DHT22;1033;52.560;13.374;2022-12-10T07:27:12;-1.30;7.50
2056;DHT22;1033;52.560;13.374;2022-12-10T07:29:41;-1.30;11.40
2056;DHT22;1033;52.560;13.374;2022-12-10T07:32:10;-1.30;24.20
2056;DHT22;1033;52.560;13.374;2022-12-10T07:34:39;-1.30;1.00
2056;DHT22;1033;52.560;13.374;2022-12-10T07:37:09;-1.20;24.80
2056;DHT22;1033;52.560;13.374;2022-12-10T07:39:38;-1.30;10.40
2056;DHT22;1033;52.560;13.374;2022-12-10T07:42:08;-1.30;14.40
2056;DHT22;1033;52.560;13.374;2022-12-10T07:44:37;-1.20;10.70
2056;DHT22;1033;52.560;13.374;2022-12-10T07:47:12;-1.10;2.00
2056;DHT22;1033;52.560;13.374;2022-12-10T07:49:41;-1.20;1.00
2056;DHT22;1033;52.560;13.374;2022-12-10T07:52:10;-1.20;1.00
2056;DHT22;1033;52.560;13.374;2022-12-10T07:54:39;-1.20;16.50
2056;DHT22;1033;52.560;13.374;2022-12-10T07:57:09;-1.10;14.20
2056;DHT22;1033;52.560;13.374;2022-12-10T07:59:38;-1.10;10.00
2056;DHT22;1033;52.560;13.374;2022-12-10T08:02:08;-1.20;1.00
2056;DHT22;1033;52.560;13.374;2022-12-10T08:04:37;-1.20;1.00
2056;DHT22;1033;52.560;13.374;2022-12-10T08:07:06;-1.20;1.00
2056;DHT22;1033;52.560;13.374;2022-12-10T08:09:36;-1.10;1.80
2056;DHT22;1033;52.560;13.374;2022-12-10T08:12:05;-1.10;13.90
2056;DHT22;1033;52.560;13.374;2022-12-10T08:14:35;-1.00;14.00
2056;DHT22;1033;52.560;13.374;2022-12-10T08:17:05;-0.90;1.90
2056;DHT22;1033;52.560;13.374;2022-12-10T08:19:33;-0.80;1.00
2056;DHT22;1033;52.560;13.374;2022-12-10T08:22:03;-0.90;1.00
2056;DHT22;1033;52.560;13.374;2022-12-10T08:24:32;-1.00;1.00
2056;DHT22;1033;52.560;13.374;2022-12-10T08:27:01;-1.00;1.00
2056;DHT22;1033;52.560;13.374;2022-12-10T08:29:30;-0.90;1.00
2056;DHT22;1033;52.560;13.374;2022-12-10T08:32:00;-0.90;1.00
2056;DHT22;1033;52.560;13.374;2022-12-10T08:34:29;-0.90;1.00
2056;DHT22;1033;52.560;13.374;2022-12-10T08:36:59;-0.80;1.00
2056;DHT22;1033;52.560;13.374;2022-12-10T08:39:28;-0.80;1.00
2056;DHT22;1033;52.560;13.374;2022-12-10T08:41:57;-0.80;1.00
2056;DHT22;1033;52.560;13.374;2022-12-10T08:44:35;-0.90;1.00
2056;DHT22;1033;52.560;13.374;2022-12-10T08:47:31;-0.90;1.00
2056;DHT22;1033;52.560;13.374;2022-12-10T08:50:01;-0.90;1.00
2056;DHT22;1033;52.560;13.374;2022-12-10T08:52:30;-0.90;1.00
2056;DHT22;1033;52.560;13.374;2022-12-10T08:54:59;-0.80;1.00
2056;DHT22;1033;52.560;13.374;2022-12-10T08:57:28;-0.80;1.00
2056;DHT22;1033;52.560;13.374;2022-12-10T08:59:58;-0.90;1.00
2056;DHT22;1033;52.560;13.374;2022-12-10T09:02:31;-0.90;1.00
2056;DHT22;1033;52.560;13.374;2022-12-10T09:05:03;-0.90;1.00
2056;DHT22;1033;52.560;13.374;2022-12-10T09:07:32;-0.80;1.00
2056;DHT22;1033;52.560;13.374;2022-12-10T09:10:01;-0.70;1.00
2056;DHT22;1033;52.560;13.374;2022-12-10T09:12:32;-0.60;1.00
2056;DHT22;1033;52.560;13.374;2022-12-10T09:15:02;-0.60;1.00
2056;DHT22;1033;52.560;13.374;2022-12-10T09:17:34;-0.60;1.00
2056;DHT22;1033;52.560;13.374;2022-12-10T09:20:06;-0.70;1.00
2056;DHT22;1033;52.560;13.374;2022-12-10T09:22:36;-0.60;1.00
2056;DHT22;1033;52.560;13.374;2022-12-10T09:25:06;-0.40;1.00
2056;DHT22;1033;52.560;13.374;2022-12-10T09:27:38;-0.40;1.00
2056;DHT22;1033;52.560;13.374;2022-12-10T09:30:13;-0.50;1.00
2056;DHT22;1033;52.560;13.374;2022-12-10T09:32:45;-0.50;1.00
2056;DHT22;1033;52.560;13.374;2022-12-10T09:35:22;-0.60;1.00
2056;DHT22;1033;52.560;13.374;2022-12-10T09:37:54;-0.50;1.00
2056;DHT22;1033;52.560;13.374;2022-12-10T09:40:31;-0.50;1.00
2056;DHT22;1033;52.560;13.374;2022-12-10T09:43:14;-0.40;1.00
2056;DHT22;1033;52.560;13.374;2022-12-10T09:46:02;-0.30;1.00
2056;DHT22;1033;52.560;13.374;2022-12-10T09:48:56;-0.40;1.00
2056;DHT22;1033;52.560;13.374;2022-12-10T09:51:35;-0.40;1.00
2056;DHT22;1033;52.560;13.374;2022-12-10T09:54:49;-0.40;1.00
2056;DHT22;1033;52.560;13.374;2022-12-10T09:58:25;-0.40;1.00
2056;DHT22;1033;52.560;13.374;2022-12-10T10:00:59;-0.40;1.00
2056;DHT22;1033;52.560;13.374;2022-12-10T10:03:32;-0.30;1.00
2056;DHT22;1033;52.560;13.374;2022-12-10T10:06:45;-0.30;1.00
2056;DHT22;1033;52.560;13.374;2022-12-10T10:09:15;-0.30;1.00
2056;DHT22;1033;52.560;13.374;2022-12-10T10:11:47;-0.40;1.00
2056;DHT22;1033;52.560;13.374;2022-12-10T10:14:25;-0.30;1.00
2056;DHT22;1033;52.560;13.374;2022-12-10T10:17:01;-0.30;1.00
2056;DHT22;1033;52.560;13.374;2022-12-10T10:19:36;-0.30;1.00
2056;DHT22;1033;52.560;13.374;2022-12-10T10:22:11;-0.30;1.00
2056;DHT22;1033;52.560;13.374;2022-12-10T10:24:44;-0.30;1.00
2056;DHT22;1033;52.560;13.374;2022-12-10T10:27:17;-0.30;1.00
2056;DHT22;1033;52.560;13.374;2022-12-10T10:29:50;-0.30;1.00
2056;DHT22;1033;52.560;13.374;2022-12-10T10:32:26;-0.30;1.00
2056;DHT22;1033;52.560;13.374;2022-12-10T10:35:27;-0.30;1.00
2056;DHT22;1033;52.560;13.374;2022-12-10T10:38:07;-0.20;1.00
2056;DHT22;1033;52.560;13.374;2022-12-10T10:40:45;-0.30;1.00
2056;DHT22;1033;52.560;13.374;2022-12-10T10:43:20;-0.10;1.00
2056;DHT22;1033;52.560;13.374;2022-12-10T10:45:54;-0.20;1.00
2056;DHT22;1033;52.560;13.374;2022-12-10T10:48:28;-0.20;1.00
2056;DHT22;1033;52.560;13.374;2022-12-10T10:51:06;-0.20;1.00
2056;DHT22;1033;52.560;13.374;2022-12-10T10:53:43;-0.10;1.00
2056;DHT22;1033;52.560;13.374;2022-12-10T10:56:15;-0.10;1.00
2056;DHT22;1033;52.560;13.374;2022-12-10T10:58:53;-0.20;1.00
2056;DHT22;1033;52.560;13.374;2022-12-10T11:01:27;-0.20;1.00
2056;DHT22;1033;52.560;13.374;2022-12-10T11:04:13;-0.20;1.00
2056;DHT22;1033;52.560;13.374;2022-12-10T11:06:45;-0.20;1.00
2056;DHT22;1033;52.560;13.374;2022-12-10T11:09:29;-0.30;1.00
2056;DHT22;1033;52.560;13.374;2022-12-10T11:12:03;-0.30;1.00
2056;DHT22;1033;52.560;13.374;2022-12-10T11:14:40;-0.30;1.00
2056;DHT22;1033;52.560;13.374;2022-12-10T11:17:18;-0.30;1.00
2056;DHT22;1033;52.560;13.374;2022-12-10T11:19:59;-0.20;1.00
2056;DHT22;1033;52.560;13.374;2022-12-10T11:22:31;-0.20;1.00
2056;DHT22;1033;52.560;13.374;2022-12-10T11:25:10;-0.20;1.00
2056;DHT22;1033;52.560;13.374;2022-12-10T11:27:49;-0.20;1.00
2056;DHT22;1033;52.560;13.374;2022-12-10T11:30:26;-0.10;1.00
2056;DHT22;1033;52.560;13.374;2022-12-10T11:33:12;-0.20;1.00
2056;DHT22;1033;52.560;13.374;2022-12-10T11:35:57;-0.20;1.00
2056;DHT22;1033;52.560;13.374;2022-12-10T11:38:39;-0.30;1.00
2056;DHT22;1033;52.560;13.374;2022-12-10T11:41:22;-0.20;1.00
2056;DHT22;1033;52.560;13.374;2022-12-10T11:44:16;-0.10;1.00
2056;DHT22;1033;52.560;13.374;2022-12-10T11:47:22;-0.10;1.00
2056;DHT22;1033;52.560;13.374;2022-12-10T11:50:15;-0.10;1.00
2056;DHT22;1033;52.560;13.374;2022-12-10T11:53:19;-0.10;1.00
2056;DHT22;1033;52.560;13.374;2022-12-10T11:56:14;-0.40;1.00
2056;DHT22;1033;52.560;13.374;2022-12-10T11:59:04;-0.40;1.00
2056;DHT22;1033;52.560;13.374;2022-12-10T12:01:56;-0.30;1.00
2056;DHT22;1033;52.560;13.374;2022-12-10T12:05:07;-0.30;1.00
2056;DHT22;1033;52.560;13.374;2022-12-10T12:07:53;-0.30;1.00
2056;DHT22;1033;52.560;13.374;2022-12-10T12:10:44;-0.30;1.00
2056;DHT22;1033;52.560;13.374;2022-12-10T12:13:45;-0.20;1.00
2056;DHT22;1033;52.560;13.374;2022-12-10T12:17:01;-0.20;1.00
2056;DHT22;1033;52.560;13.374;2022-12-10T12:20:13;-0.20;1.00
2056;DHT22;1033;52.560;13.374;2022-12-10T12:26:52;-0.10;1.00
2056;DHT22;1033;52.560;13.374;2022-12-10T12:42:29;-0.50;1.00
2056;DHT22;1033;52.560;13.374;2022-12-10T12:46:35;-0.50;1.00
2056;DHT22;1033;52.560;13.374;2022-12-10T12:57:43;-0.50;1.00
2056;DHT22;1033;52.560;13.374;2022-12-10T13:00:20;-0.40;1.00
2056;DHT22;1033;52.560;13.374;2022-12-10T13:03:00;-0.30;1.00
2056;DHT22;1033;52.560;13.374;2022-12-10T13:05:45;-0.40;1.00
2056;DHT22;1033;52.560;13.374;2022-12-10T13:08:23;-0.50;1.00
2056;DHT22;1033;52.560;13.374;2022-12-10T13:11:17;-0.50;1.00
2056;DHT22;1033;52.560;13.374;2022-12-10T13:14:33;-0.50;1.00
2056;DHT22;1033;52.560;13.374;2022-12-10T13:17:25;-0.50;1.00
2056;DHT22;1033;52.560;13.374;2022-12-10T13:20:31;-0.50;1.00
2056;DHT22;1033;52.560;13.374;2022-12-10T13:23:03;-0.50;1.00
2056;DHT22;1033;52.560;13.374;2022-12-10T13:25:57;-0.50;1.00
2056;DHT22;1033;52.560;13.374;2022-12-10T13:28:48;-0.50;1.00
2056;DHT22;1033;52.560;13.374;2022-12-10T13:31:34;-0.50;1.00
2056;DHT22;1033;52.560;13.374;2022-12-10T13:37:26;-0.50;1.00
2056;DHT22;1033;52.560;13.374;2022-12-10T13:40:21;-0.50;1.00
2056;DHT22;1033;52.560;13.374;2022-12-10T13:43:20;-0.60;1.00
2056;DHT22;1033;52.560;13.374;2022-12-10T13:46:31;-0.70;1.00
2056;DHT22;1033;52.560;13.374;2022-12-10T13:49:05;-0.70;1.00
2056;DHT22;1033;52.560;13.374;2022-12-10T13:51:54;-0.70;1.00
2056;DHT22;1033;52.560;13.374;2022-12-10T13:54:56;-0.70;1.00
2056;DHT22;1033;52.560;13.374;2022-12-10T13:58:01;-0.70;1.00
2056;DHT22;1033;52.560;13.374;2022-12-10T14:00:57;-0.80;1.00
2056;DHT22;1033;52.560;13.374;2022-12-10T14:03:52;-0.80;1.00
2056;DHT22;1033;52.560;13.374;2022-12-10T14:06:44;-0.70;1.00
2056;DHT22;1033;52.560;13.374;2022-12-10T14:09:18;-0.70;1.00
2056;DHT22;1033;52.560;13.374;2022-12-10T14:11:56;-0.70;1.00
2056;DHT22;1033;52.560;13.374;2022-12-10T14:14:31;-0.70;1.00
2056;DHT22;1033;52.560;13.374;2022-12-10T14:17:04;-0.80;1.00
2056;DHT22;1033;52.560;13.374;2022-12-10T14:19:43;-0.80;1.00
2056;DHT22;1033;52.560;13.374;2022-12-10T14:22:21;-0.80;1.00
2056;DHT22;1033;52.560;13.374;2022-12-10T14:24:59;-0.80;1.00
2056;DHT22;1033;52.560;13.374;2022-12-10T14:27:30;-0.70;1.00
2056;DHT22;1033;52.560;13.374;2022-12-10T14:30:02;-0.70;1.00
2056;DHT22;1033;52.560;13.374;2022-12-10T14:32:36;-0.70;1.00
2056;DHT22;1033;52.560;13.374;2022-12-10T14:35:13;-0.70;1.00
2056;DHT22;1033;52.560;13.374;2022-12-10T14:37:52;-0.70;1.00
2056;DHT22;1033;52.560;13.374;2022-12-10T14:40:26;-0.60;1.00
2056;DHT22;1033;52.560;13.374;2022-12-10T14:43:03;-0.60;1.00
2056;DHT22;1033;52.560;13.374;2022-12-10T14:45:40;-0.60;1.00
2056;DHT22;1033;52.560;13.374;2022-12-10T14:48:15;-0.60;1.00
2056;DHT22;1033;52.560;13.374;2022-12-10T14:50:46;-0.50;1.00
2056;DHT22;1033;52.560;13.374;2022-12-10T14:53:18;-0.50;1.00
2056;DHT22;1033;52.560;13.374;2022-12-10T14:55:57;-0.50;1.00
2056;DHT22;1033;52.560;13.374;2022-12-10T14:58:36;-0.60;1.00
2056;DHT22;1033;52.560;13.374;2022-12-10T15:01:14;-0.50;1.00
2056;DHT22;1033;52.560;13.374;2022-12-10T15:04:00;-0.50;1.00
2056;DHT22;1033;52.560;13.374;2022-12-10T15:06:35;-0.60;1.00
2056;DHT22;1033;52.560;13.374;2022-12-10T15:09:09;-0.60;1.00
2056;DHT22;1033;52.560;13.374;2022-12-10T15:11:44;-0.70;1.00
2056;DHT22;1033;52.560;13.374;2022-12-10T15:14:17;-0.70;1.00
2056;DHT22;1033;52.560;13.374;2022-12-10T15:16:49;-0.70;1.00
2056;DHT22;1033;52.560;13.374;2022-12-10T15:19:32;-0.70;1.00
2056;DHT22;1033;52.560;13.374;2022-12-10T15:22:19;-0.80;1.00
2056;DHT22;1033;52.560;13.374;2022-12-10T15:24:51;-0.80;1.00
2056;DHT22;1033;52.560;13.374;2022-12-10T15:27:23;-0.70;1.00
2056;DHT22;1033;52.560;13.374;2022-12-10T15:29:54;-0.60;1.00
2056;DHT22;1033;52.560;13.374;2022-12-10T15:32:26;-0.60;1.00
2056;DHT22;1033;52.560;13.374;2022-12-10T15:35:00;-0.60;1.00
2056;DHT22;1033;52.560;13.374;2022-12-10T15:37:39;-0.70;1.00
2056;DHT22;1033;52.560;13.374;2022-12-10T15:40:23;-0.70;1.00
2056;DHT22;1033;52.560;13.374;2022-12-10T15:42:57;-0.60;1.00
2056;DHT22;1033;52.560;13.374;2022-12-10T15:45:44;-0.60;1.00
2056;DHT22;1033;52.560;13.374;2022-12-10T15:48:20;-0.70;1.00
2056;DHT22;1033;52.560;13.374;2022-12-10T15:50:54;-0.80;1.00
2056;DHT22;1033;52.560;13.374;2022-12-10T15:53:29;-0.80;1.00
2056;DHT22;1033;52.560;13.374;2022-12-10T15:56:09;-0.70;1.00
2056;DHT22;1033;52.560;13.374;2022-12-10T15:58:42;-0.80;1.00
2056;DHT22;1033;52.560;13.374;2022-12-10T16:01:13;-0.80;1.00
2056;DHT22;1033;52.560;13.374;2022-12-10T16:03:44;-0.80;1.00
2056;DHT22;1033;52.560;13.374;2022-12-10T16:06:19;-0.80;1.00
2056;DHT22;1033;52.560;13.374;2022-12-10T16:08:58;-0.80;1.00
2056;DHT22;1033;52.560;13.374;2022-12-10T16:11:35;-0.80;1.00
2056;DHT22;1033;52.560;13.374;2022-12-10T16:14:10;-0.70;1.00
2056;DHT22;1033;52.560;13.374;2022-12-10T16:16:41;-0.70;1.00
2056;DHT22;1033;52.560;13.374;2022-12-10T16:19:12;-0.70;1.00
2056;DHT22;1033;52.560;13.374;2022-12-10T16:21:43;-0.70;1.00
2056;DHT22;1033;52.560;13.374;2022-12-10T16:24:16;-0.70;1.00
2056;DHT22;1033;52.560;13.374;2022-12-10T16:26:45;-0.80;1.00
2056;DHT22;1033;52.560;13.374;2022-12-10T16:29:18;-0.70;1.00
2056;DHT22;1033;52.560;13.374;2022-12-10T16:31:49;-0.70;1.00
2056;DHT22;1033;52.560;13.374;2022-12-10T16:34:19;-0.60;1.00
2056;DHT22;1033;52.560;13.374;2022-12-10T16:36:49;-0.60;1.00
2056;DHT22;1033;52.560;13.374;2022-12-10T16:39:21;-0.60;1.00
2056;DHT22;1033;52.560;13.374;2022-12-10T16:41:57;-0.60;1.00
2056;DHT22;1033;52.560;13.374;2022-12-10T16:44:28;-0.70;1.00
2056;DHT22;1033;52.560;13.374;2022-12-10T16:47:01;-0.70;1.00
2056;DHT22;1033;52.560;13.374;2022-12-10T16:49:42;-0.70;1.00
2056;DHT22;1033;52.560;13.374;2022-12-10T16:52:13;-0.80;1.00
2056;DHT22;1033;52.560;13.374;2022-12-10T16:54:46;-0.80;1.00
2056;DHT22;1033;52.560;13.374;2022-12-10T17:16:02;-0.70;1.00
2056;DHT22;1033;52.560;13.374;2022-12-10T17:20:16;-0.70;1.00
2056;DHT22;1033;52.560;13.374;2022-12-10T17:24:40;-0.80;99.90
2056;DHT22;1033;52.560;13.374;2022-12-10T17:29:22;-0.80;99.90
2056;DHT22;1033;52.560;13.374;2022-12-10T18:00:32;-0.70;99.90
2056;DHT22;1033;52.560;13.374;2022-12-10T18:03:40;-0.70;99.90
2056;DHT22;1033;52.560;13.374;2022-12-10T18:06:57;-0.80;99.90
2056;DHT22;1033;52.560;13.374;2022-12-10T18:09:37;-0.80;99.90
2056;DHT22;1033;52.560;13.374;2022-12-10T18:12:10;-0.80;99.90
2056;DHT22;1033;52.560;13.374;2022-12-10T18:14:42;-0.70;99.90
2056;DHT22;1033;52.560;13.374;2022-12-10T18:17:18;-0.70;99.90
2056;DHT22;1033;52.560;13.374;2022-12-10T18:19:49;-0.70;99.90
2056;DHT22;1033;52.560;13.374;2022-12-10T18:22:29;-0.60;99.90
2056;DHT22;1033;52.560;13.374;2022-12-10T18:25:02;-0.60;99.90
2056;DHT22;1033;52.560;13.374;2022-12-10T18:27:54;-0.60;99.90